sensor_id;sensor_type;location;lat;lon;timestamp;P1;durP1;ratioP1;P2;durP2;ratioP2
40122;SDS011;25832;45.490;4.912;2023-03-01T00:02:06;29.73;;;16.25;;
40122;SDS011;25832;45.490;4.912;2023-03-01T00:04:32;23.00;;;13.73;;
40122;SDS011;25832;45.490;4.912;2023-03-01T00:06:57;29.88;;;14.43;;
40122;SDS011;25832;45.490;4.912;2023-03-01T00:09:23;25.98;;;14.45;;
40122;SDS011;25832;45.490;4.912;2023-03-01T00:11:49;25.35;;;14.75;;
40122;SDS011;25832;45.490;4.912;2023-03-01T00:14:15;24.05;;;14.52;;
40122;SDS011;25832;45.490;4.912;2023-03-01T00:16:44;26.08;;;14.20;;
40122;SDS011;25832;45.490;4.912;2023-03-01T00:19:13;30.90;;;15.15;;
40122;SDS011;25832;45.490;4.912;2023-03-01T00:21:44;24.50;;;14.55;;
40122;SDS011;25832;45.490;4.912;2023-03-01T00:24:09;23.52;;;14.60;;
40122;SDS011;25832;45.490;4.912;2023-03-01T00:26:35;23.60;;;14.40;;
40122;SDS011;25832;45.490;4.912;2023-03-01T00:29:01;21.25;;;13.55;;
40122;SDS011;25832;45.490;4.912;2023-03-01T00:31:28;24.27;;;14.90;;
40122;SDS011;25832;45.490;4.912;2023-03-01T00:33:55;29.15;;;14.93;;
40122;SDS011;25832;45.490;4.912;2023-03-01T00:36:22;22.35;;;13.82;;
40122;SDS011;25832;45.490;4.912;2023-03-01T00:38:52;24.10;;;13.73;;
40122;SDS011;25832;45.490;4.912;2023-03-01T00:41:18;28.10;;;15.27;;
40122;SDS011;25832;45.490;4.912;2023-03-01T00:43:45;24.77;;;13.80;;
40122;SDS011;25832;45.490;4.912;2023-03-01T00:46:12;26.20;;;15.10;;
40122;SDS011;25832;45.490;4.912;2023-03-01T00:48:39;24.27;;;14.57;;
40122;SDS011;25832;45.490;4.912;2023-03-01T00:51:06;24.17;;;14.88;;
40122;SDS011;25832;45.490;4.912;2023-03-01T00:53:37;25.35;;;15.23;;
40122;SDS011;25832;45.490;4.912;2023-03-01T00:56:03;23.08;;;14.20;;
40122;SDS011;25832;45.490;4.912;2023-03-01T00:58:31;29.50;;;15.75;;
40122;SDS011;25832;45.490;4.912;2023-03-01T01:00:57;28.15;;;15.43;;
40122;SDS011;25832;45.490;4.912;2023-03-01T01:03:23;24.85;;;15.05;;
40122;SDS011;25832;45.490;4.912;2023-03-01T01:05:50;24.38;;;14.77;;
40122;SDS011;25832;45.490;4.912;2023-03-01T01:08:16;24.05;;;14.35;;
40122;SDS011;25832;45.490;4.912;2023-03-01T01:10:45;23.48;;;15.13;;
40122;SDS011;25832;45.490;4.912;2023-03-01T01:13:12;27.70;;;14.38;;
40122;SDS011;25832;45.490;4.912;2023-03-01T01:15:38;22.05;;;14.63;;
40122;SDS011;25832;45.490;4.912;2023-03-01T01:18:04;25.70;;;16.27;;
40122;SDS011;25832;45.490;4.912;2023-03-01T01:20:30;24.67;;;15.32;;
40122;SDS011;25832;45.490;4.912;2023-03-01T01:22:55;28.77;;;15.88;;
40122;SDS011;25832;45.490;4.912;2023-03-01T01:25:21;26.70;;;15.05;;
40122;SDS011;25832;45.490;4.912;2023-03-01T01:27:49;27.73;;;15.50;;
40122;SDS011;25832;45.490;4.912;2023-03-01T01:30:15;28.92;;;15.77;;
40122;SDS011;25832;45.490;4.912;2023-03-01T01:32:41;25.92;;;16.60;;
40122;SDS011;25832;45.490;4.912;2023-03-01T01:35:07;24.02;;;14.98;;
40122;SDS011;25832;45.490;4.912;2023-03-01T01:37:33;24.20;;;15.60;;
40122;SDS011;25832;45.490;4.912;2023-03-01T01:39:59;24.77;;;15.70;;
40122;SDS011;25832;45.490;4.912;2023-03-01T01:42:25;27.63;;;16.17;;
40122;SDS011;25832;45.490;4.912;2023-03-01T01:47:49;30.50;;;15.85;;
40122;SDS011;25832;45.490;4.912;2023-03-01T01:50:16;25.17;;;14.55;;
40122;SDS011;25832;45.490;4.912;2023-03-01T01:52:43;25.05;;;15.18;;
40122;SDS011;25832;45.490;4.912;2023-03-01T01:55:12;33.08;;;16.95;;
40122;SDS011;25832;45.490;4.912;2023-03-01T01:57:42;27.17;;;14.88;;
40122;SDS011;25832;45.490;4.912;2023-03-01T02:00:24;24.80;;;14.20;;
40122;SDS011;25832;45.490;4.912;2023-03-01T02:02:56;29.92;;;15.60;;
40122;SDS011;25832;45.490;4.912;2023-03-01T02:08:08;26.38;;;14.85;;
40122;SDS011;25832;45.490;4.912;2023-03-01T02:10:37;27.90;;;15.90;;
40122;SDS011;25832;45.490;4.912;2023-03-01T02:13:03;29.15;;;16.85;;
40122;SDS011;25832;45.490;4.912;2023-03-01T02:15:38;32.58;;;16.63;;
40122;SDS011;25832;45.490;4.912;2023-03-01T02:18:05;26.58;;;15.10;;
40122;SDS011;25832;45.490;4.912;2023-03-01T02:20:39;24.00;;;15.15;;
40122;SDS011;25832;45.490;4.912;2023-03-01T02:23:15;26.52;;;15.63;;
40122;SDS011;25832;45.490;4.912;2023-03-01T02:30:39;26.40;;;15.80;;
40122;SDS011;25832;45.490;4.912;2023-03-01T02:33:25;29.48;;;17.05;;
40122;SDS011;25832;45.490;4.912;2023-03-01T02:35:52;31.95;;;17.00;;
40122;SDS011;25832;45.490;4.912;2023-03-01T02:38:19;31.75;;;16.60;;
40122;SDS011;25832;45.490;4.912;2023-03-01T02:40:47;28.85;;;16.52;;
40122;SDS011;25832;45.490;4.912;2023-03-01T02:43:16;33.95;;;16.92;;
40122;SDS011;25832;45.490;4.912;2023-03-01T02:45:49;28.13;;;16.15;;
40122;SDS011;25832;45.490;4.912;2023-03-01T02:48:16;28.23;;;16.65;;
40122;SDS011;25832;45.490;4.912;2023-03-01T02:50:51;29.30;;;16.20;;
40122;SDS011;25832;45.490;4.912;2023-03-01T02:53:28;30.85;;;16.92;;
40122;SDS011;25832;45.490;4.912;2023-03-01T02:56:04;27.15;;;17.38;;
40122;SDS011;25832;45.490;4.912;2023-03-01T02:58:30;31.60;;;16.42;;
40122;SDS011;25832;45.490;4.912;2023-03-01T03:00:55;28.17;;;17.48;;
40122;SDS011;25832;45.490;4.912;2023-03-01T03:03:21;31.08;;;17.05;;
40122;SDS011;25832;45.490;4.912;2023-03-01T03:05:47;30.45;;;15.88;;
40122;SDS011;25832;45.490;4.912;2023-03-01T03:08:13;32.38;;;18.20;;
40122;SDS011;25832;45.490;4.912;2023-03-01T03:10:41;28.27;;;15.25;;
40122;SDS011;25832;45.490;4.912;2023-03-01T03:13:12;45.00;;;22.38;;
40122;SDS011;25832;45.490;4.912;2023-03-01T03:15:39;38.45;;;20.48;;
40122;SDS011;25832;45.490;4.912;2023-03-01T03:18:07;40.65;;;19.77;;
40122;SDS011;25832;45.490;4.912;2023-03-01T03:20:35;30.77;;;18.67;;
40122;SDS011;25832;45.490;4.912;2023-03-01T03:23:02;34.75;;;18.15;;
40122;SDS011;25832;45.490;4.912;2023-03-01T03:25:29;26.85;;;16.60;;
40122;SDS011;25832;45.490;4.912;2023-03-01T03:27:55;31.27;;;16.73;;
40122;SDS011;25832;45.490;4.912;2023-03-01T03:30:22;32.33;;;18.20;;
40122;SDS011;25832;45.490;4.912;2023-03-01T03:32:51;32.92;;;18.50;;
40122;SDS011;25832;45.490;4.912;2023-03-01T03:35:18;28.33;;;15.85;;
40122;SDS011;25832;45.490;4.912;2023-03-01T03:37:49;34.75;;;18.85;;
40122;SDS011;25832;45.490;4.912;2023-03-01T03:40:37;30.02;;;16.83;;
40122;SDS011;25832;45.490;4.912;2023-03-01T03:43:06;30.25;;;17.40;;
40122;SDS011;25832;45.490;4.912;2023-03-01T03:45:33;28.95;;;16.92;;
40122;SDS011;25832;45.490;4.912;2023-03-01T03:48:00;31.52;;;17.38;;
40122;SDS011;25832;45.490;4.912;2023-03-01T03:50:27;28.77;;;17.17;;
40122;SDS011;25832;45.490;4.912;2023-03-01T03:52:53;38.50;;;19.15;;
40122;SDS011;25832;45.490;4.912;2023-03-01T03:55:19;28.92;;;15.80;;
40122;SDS011;25832;45.490;4.912;2023-03-01T03:57:46;32.15;;;17.17;;
40122;SDS011;25832;45.490;4.912;2023-03-01T04:00:18;33.00;;;16.45;;
40122;SDS011;25832;45.490;4.912;2023-03-01T04:02:45;30.60;;;17.50;;
40122;SDS011;25832;45.490;4.912;2023-03-01T04:05:13;30.27;;;17.40;;
40122;SDS011;25832;45.490;4.912;2023-03-01T04:07:40;27.35;;;16.92;;
40122;SDS011;25832;45.490;4.912;2023-03-01T04:10:08;26.38;;;16.35;;
40122;SDS011;25832;45.490;4.912;2023-03-01T04:12:39;28.95;;;17.05;;
40122;SDS011;25832;45.490;4.912;2023-03-01T04:15:06;32.67;;;18.17;;
40122;SDS011;25832;45.490;4.912;2023-03-01T04:17:42;30.60;;;16.88;;
40122;SDS011;25832;45.490;4.912;2023-03-01T04:20:13;33.05;;;18.75;;
40122;SDS011;25832;45.490;4.912;2023-03-01T04:22:50;30.33;;;18.05;;
40122;SDS011;25832;45.490;4.912;2023-03-01T04:28:23;35.88;;;20.15;;
40122;SDS011;25832;45.490;4.912;2023-03-01T04:30:50;33.85;;;18.67;;
40122;SDS011;25832;45.490;4.912;2023-03-01T04:33:16;33.42;;;19.00;;
40122;SDS011;25832;45.490;4.912;2023-03-01T04:35:42;36.60;;;19.27;;
40122;SDS011;25832;45.490;4.912;2023-03-01T04:38:08;35.83;;;19.75;;
40122;SDS011;25832;45.490;4.912;2023-03-01T04:40:34;32.50;;;17.95;;
40122;SDS011;25832;45.490;4.912;2023-03-01T04:43:00;30.00;;;16.63;;
40122;SDS011;25832;45.490;4.912;2023-03-01T04:45:27;33.17;;;16.73;;
40122;SDS011;25832;45.490;4.912;2023-03-01T04:47:53;30.48;;;17.13;;
40122;SDS011;25832;45.490;4.912;2023-03-01T04:50:19;32.13;;;17.55;;
40122;SDS011;25832;45.490;4.912;2023-03-01T04:52:46;35.70;;;16.88;;
40122;SDS011;25832;45.490;4.912;2023-03-01T04:55:12;29.00;;;16.98;;
40122;SDS011;25832;45.490;4.912;2023-03-01T04:57:39;33.50;;;18.85;;
40122;SDS011;25832;45.490;4.912;2023-03-01T05:00:05;35.55;;;18.83;;
40122;SDS011;25832;45.490;4.912;2023-03-01T05:03:03;32.78;;;18.08;;
40122;SDS011;25832;45.490;4.912;2023-03-01T05:05:33;32.22;;;18.67;;
40122;SDS011;25832;45.490;4.912;2023-03-01T05:08:02;32.63;;;17.83;;
40122;SDS011;25832;45.490;4.912;2023-03-01T05:10:30;35.67;;;20.60;;
40122;SDS011;25832;45.490;4.912;2023-03-01T05:12:57;29.60;;;18.75;;
40122;SDS011;25832;45.490;4.912;2023-03-01T05:15:24;35.40;;;19.98;;
40122;SDS011;25832;45.490;4.912;2023-03-01T05:17:52;33.78;;;19.42;;
40122;SDS011;25832;45.490;4.912;2023-03-01T05:20:19;33.17;;;19.23;;
40122;SDS011;25832;45.490;4.912;2023-03-01T05:22:49;34.20;;;19.15;;
40122;SDS011;25832;45.490;4.912;2023-03-01T05:25:15;32.67;;;18.35;;
40122;SDS011;25832;45.490;4.912;2023-03-01T05:27:42;37.05;;;19.90;;
40122;SDS011;25832;45.490;4.912;2023-03-01T05:30:08;37.13;;;19.40;;
40122;SDS011;25832;45.490;4.912;2023-03-01T05:32:44;39.40;;;19.92;;
40122;SDS011;25832;45.490;4.912;2023-03-01T05:35:13;39.30;;;20.77;;
40122;SDS011;25832;45.490;4.912;2023-03-01T05:37:41;34.35;;;19.45;;
40122;SDS011;25832;45.490;4.912;2023-03-01T05:40:08;35.00;;;18.90;;
40122;SDS011;25832;45.490;4.912;2023-03-01T05:42:41;34.35;;;18.75;;
40122;SDS011;25832;45.490;4.912;2023-03-01T05:45:12;38.28;;;20.30;;
40122;SDS011;25832;45.490;4.912;2023-03-01T05:47:42;37.85;;;19.67;;
40122;SDS011;25832;45.490;4.912;2023-03-01T05:50:15;37.83;;;20.02;;
40122;SDS011;25832;45.490;4.912;2023-03-01T05:52:50;35.38;;;20.20;;
40122;SDS011;25832;45.490;4.912;2023-03-01T05:55:17;35.70;;;20.38;;
40122;SDS011;25832;45.490;4.912;2023-03-01T05:57:44;33.92;;;18.98;;
40122;SDS011;25832;45.490;4.912;2023-03-01T06:00:11;32.85;;;19.83;;
40122;SDS011;25832;45.490;4.912;2023-03-01T06:02:38;36.33;;;20.17;;
40122;SDS011;25832;45.490;4.912;2023-03-01T06:05:05;34.70;;;21.00;;
40122;SDS011;25832;45.490;4.912;2023-03-01T06:07:33;41.90;;;21.27;;
40122;SDS011;25832;45.490;4.912;2023-03-01T06:09:59;38.83;;;21.75;;
40122;SDS011;25832;45.490;4.912;2023-03-01T06:12:26;41.95;;;23.17;;
40122;SDS011;25832;45.490;4.912;2023-03-01T06:14:55;49.88;;;23.42;;
40122;SDS011;25832;45.490;4.912;2023-03-01T06:17:20;38.42;;;22.83;;
40122;SDS011;25832;45.490;4.912;2023-03-01T06:19:46;41.33;;;22.25;;
40122;SDS011;25832;45.490;4.912;2023-03-01T06:22:12;37.38;;;20.63;;
40122;SDS011;25832;45.490;4.912;2023-03-01T06:24:38;37.65;;;21.77;;
40122;SDS011;25832;45.490;4.912;2023-03-01T06:27:04;40.75;;;19.70;;
40122;SDS011;25832;45.490;4.912;2023-03-01T06:29:29;39.22;;;21.65;;
40122;SDS011;25832;45.490;4.912;2023-03-01T06:31:55;35.22;;;20.23;;
40122;SDS011;25832;45.490;4.912;2023-03-01T06:34:21;37.13;;;19.80;;
40122;SDS011;25832;45.490;4.912;2023-03-01T06:36:47;35.85;;;18.45;;
40122;SDS011;25832;45.490;4.912;2023-03-01T06:39:12;33.55;;;19.52;;
40122;SDS011;25832;45.490;4.912;2023-03-01T06:41:38;31.10;;;17.67;;
40122;SDS011;25832;45.490;4.912;2023-03-01T06:44:03;34.53;;;20.38;;
40122;SDS011;25832;45.490;4.912;2023-03-01T06:46:29;38.28;;;20.63;;
40122;SDS011;25832;45.490;4.912;2023-03-01T06:48:55;36.25;;;21.00;;
40122;SDS011;25832;45.490;4.912;2023-03-01T06:51:21;35.85;;;19.77;;
40122;SDS011;25832;45.490;4.912;2023-03-01T06:53:47;34.80;;;19.77;;
40122;SDS011;25832;45.490;4.912;2023-03-01T06:56:12;35.42;;;18.67;;
40122;SDS011;25832;45.490;4.912;2023-03-01T06:58:38;29.50;;;18.63;;
40122;SDS011;25832;45.490;4.912;2023-03-01T07:01:07;36.22;;;19.08;;
40122;SDS011;25832;45.490;4.912;2023-03-01T07:03:33;34.17;;;18.38;;
40122;SDS011;25832;45.490;4.912;2023-03-01T07:05:59;33.00;;;18.02;;
40122;SDS011;25832;45.490;4.912;2023-03-01T07:08:25;31.13;;;18.65;;
40122;SDS011;25832;45.490;4.912;2023-03-01T07:10:57;35.83;;;19.85;;
40122;SDS011;25832;45.490;4.912;2023-03-01T07:13:23;32.92;;;18.27;;
40122;SDS011;25832;45.490;4.912;2023-03-01T07:15:49;36.63;;;17.15;;
40122;SDS011;25832;45.490;4.912;2023-03-01T07:18:15;36.05;;;20.77;;
40122;SDS011;25832;45.490;4.912;2023-03-01T07:20:40;33.70;;;18.98;;
40122;SDS011;25832;45.490;4.912;2023-03-01T07:23:06;34.47;;;18.55;;
40122;SDS011;25832;45.490;4.912;2023-03-01T07:25:32;34.28;;;18.15;;
40122;SDS011;25832;45.490;4.912;2023-03-01T07:27:58;38.45;;;20.48;;
40122;SDS011;25832;45.490;4.912;2023-03-01T07:30:24;34.83;;;19.83;;
40122;SDS011;25832;45.490;4.912;2023-03-01T07:32:52;42.40;;;19.85;;
40122;SDS011;25832;45.490;4.912;2023-03-01T07:35:18;37.42;;;19.75;;
40122;SDS011;25832;45.490;4.912;2023-03-01T07:37:44;36.88;;;19.33;;
40122;SDS011;25832;45.490;4.912;2023-03-01T07:40:10;34.08;;;20.80;;
40122;SDS011;25832;45.490;4.912;2023-03-01T07:42:36;38.63;;;20.88;;
40122;SDS011;25832;45.490;4.912;2023-03-01T07:45:02;43.40;;;20.83;;
40122;SDS011;25832;45.490;4.912;2023-03-01T07:47:30;35.35;;;19.85;;
40122;SDS011;25832;45.490;4.912;2023-03-01T07:49:56;32.15;;;18.77;;
40122;SDS011;25832;45.490;4.912;2023-03-01T07:52:22;36.75;;;20.08;;
40122;SDS011;25832;45.490;4.912;2023-03-01T07:54:47;35.45;;;19.63;;
40122;SDS011;25832;45.490;4.912;2023-03-01T07:57:13;37.67;;;20.17;;
40122;SDS011;25832;45.490;4.912;2023-03-01T07:59:39;40.28;;;22.13;;
40122;SDS011;25832;45.490;4.912;2023-03-01T08:02:05;36.42;;;19.88;;
40122;SDS011;25832;45.490;4.912;2023-03-01T08:04:31;34.42;;;20.17;;
40122;SDS011;25832;45.490;4.912;2023-03-01T08:06:58;37.17;;;18.98;;
40122;SDS011;25832;45.490;4.912;2023-03-01T08:09:23;37.13;;;20.38;;
40122;SDS011;25832;45.490;4.912;2023-03-01T08:11:49;41.83;;;20.85;;
40122;SDS011;25832;45.490;4.912;2023-03-01T08:14:15;32.25;;;20.20;;
40122;SDS011;25832;45.490;4.912;2023-03-01T08:16:40;32.25;;;17.38;;
40122;SDS011;25832;45.490;4.912;2023-03-01T08:19:07;35.88;;;20.73;;
40122;SDS011;25832;45.490;4.912;2023-03-01T08:21:34;38.08;;;19.73;;
40122;SDS011;25832;45.490;4.912;2023-03-01T08:24:00;39.47;;;20.98;;
40122;SDS011;25832;45.490;4.912;2023-03-01T08:26:27;36.28;;;19.67;;
40122;SDS011;25832;45.490;4.912;2023-03-01T08:28:53;36.70;;;19.98;;
40122;SDS011;25832;45.490;4.912;2023-03-01T08:31:23;44.80;;;21.40;;
40122;SDS011;25832;45.490;4.912;2023-03-01T08:33:53;42.65;;;22.63;;
40122;SDS011;25832;45.490;4.912;2023-03-01T08:36:28;38.33;;;21.75;;
40122;SDS011;25832;45.490;4.912;2023-03-01T08:38:55;40.92;;;21.27;;
40122;SDS011;25832;45.490;4.912;2023-03-01T08:41:21;42.60;;;21.50;;
40122;SDS011;25832;45.490;4.912;2023-03-01T08:43:47;37.38;;;20.98;;
40122;SDS011;25832;45.490;4.912;2023-03-01T08:46:14;41.30;;;23.80;;
40122;SDS011;25832;45.490;4.912;2023-03-01T08:48:39;47.53;;;22.20;;
40122;SDS011;25832;45.490;4.912;2023-03-01T08:51:11;43.15;;;22.95;;
40122;SDS011;25832;45.490;4.912;2023-03-01T08:53:39;41.20;;;22.23;;
40122;SDS011;25832;45.490;4.912;2023-03-01T08:56:05;39.92;;;21.67;;
40122;SDS011;25832;45.490;4.912;2023-03-01T08:58:31;42.60;;;22.42;;
40122;SDS011;25832;45.490;4.912;2023-03-01T09:00:57;37.78;;;21.90;;
40122;SDS011;25832;45.490;4.912;2023-03-01T09:03:23;36.83;;;20.80;;
40122;SDS011;25832;45.490;4.912;2023-03-01T09:05:50;40.85;;;22.73;;
40122;SDS011;25832;45.490;4.912;2023-03-01T09:08:17;41.00;;;20.98;;
40122;SDS011;25832;45.490;4.912;2023-03-01T09:10:43;36.88;;;20.92;;
40122;SDS011;25832;45.490;4.912;2023-03-01T09:13:10;44.30;;;23.80;;
40122;SDS011;25832;45.490;4.912;2023-03-01T09:15:36;36.85;;;20.50;;
40122;SDS011;25832;45.490;4.912;2023-03-01T09:18:03;39.03;;;21.63;;
40122;SDS011;25832;45.490;4.912;2023-03-01T09:20:30;34.60;;;20.73;;
40122;SDS011;25832;45.490;4.912;2023-03-01T09:22:56;41.80;;;21.73;;
40122;SDS011;25832;45.490;4.912;2023-03-01T09:25:23;43.55;;;21.95;;
40122;SDS011;25832;45.490;4.912;2023-03-01T09:27:53;43.58;;;21.58;;
40122;SDS011;25832;45.490;4.912;2023-03-01T09:30:19;36.93;;;20.07;;
40122;SDS011;25832;45.490;4.912;2023-03-01T09:32:45;37.33;;;20.83;;
40122;SDS011;25832;45.490;4.912;2023-03-01T09:35:11;38.13;;;21.50;;
40122;SDS011;25832;45.490;4.912;2023-03-01T09:37:37;44.15;;;22.52;;
40122;SDS011;25832;45.490;4.912;2023-03-01T09:40:05;37.72;;;20.65;;
40122;SDS011;25832;45.490;4.912;2023-03-01T09:42:45;39.58;;;20.55;;
40122;SDS011;25832;45.490;4.912;2023-03-01T09:45:37;41.10;;;21.35;;
40122;SDS011;25832;45.490;4.912;2023-03-01T09:48:09;29.15;;;15.20;;
40122;SDS011;25832;45.490;4.912;2023-03-01T09:50:41;39.15;;;22.33;;
40122;SDS011;25832;45.490;4.912;2023-03-01T09:53:17;39.20;;;22.15;;
40122;SDS011;25832;45.490;4.912;2023-03-01T09:55:46;42.53;;;22.98;;
40122;SDS011;25832;45.490;4.912;2023-03-01T09:58:31;40.60;;;22.00;;
40122;SDS011;25832;45.490;4.912;2023-03-01T10:04:12;46.42;;;21.65;;
40122;SDS011;25832;45.490;4.912;2023-03-01T10:06:44;33.78;;;20.92;;
40122;SDS011;25832;45.490;4.912;2023-03-01T10:09:16;37.08;;;20.55;;
40122;SDS011;25832;45.490;4.912;2023-03-01T10:11:48;38.65;;;21.17;;
40122;SDS011;25832;45.490;4.912;2023-03-01T10:14:33;38.10;;;21.60;;
40122;SDS011;25832;45.490;4.912;2023-03-01T10:17:12;39.30;;;20.80;;
40122;SDS011;25832;45.490;4.912;2023-03-01T10:19:50;40.42;;;21.83;;
40122;SDS011;25832;45.490;4.912;2023-03-01T10:22:17;39.88;;;21.52;;
40122;SDS011;25832;45.490;4.912;2023-03-01T10:24:47;37.95;;;21.98;;
40122;SDS011;25832;45.490;4.912;2023-03-01T10:27:23;39.45;;;21.15;;
40122;SDS011;25832;45.490;4.912;2023-03-01T10:32:28;40.92;;;21.83;;
40122;SDS011;25832;45.490;4.912;2023-03-01T10:34:54;36.85;;;21.63;;
40122;SDS011;25832;45.490;4.912;2023-03-01T10:37:20;38.72;;;21.55;;
40122;SDS011;25832;45.490;4.912;2023-03-01T10:39:56;37.92;;;22.23;;
40122;SDS011;25832;45.490;4.912;2023-03-01T10:42:46;40.47;;;21.65;;
40122;SDS011;25832;45.490;4.912;2023-03-01T10:48:11;42.60;;;22.17;;
40122;SDS011;25832;45.490;4.912;2023-03-01T10:51:14;40.22;;;22.17;;
40122;SDS011;25832;45.490;4.912;2023-03-01T10:53:40;42.77;;;21.60;;
40122;SDS011;25832;45.490;4.912;2023-03-01T10:56:08;39.80;;;21.80;;
40122;SDS011;25832;45.490;4.912;2023-03-01T10:58:37;45.95;;;23.88;;
40122;SDS011;25832;45.490;4.912;2023-03-01T11:03:38;37.95;;;22.67;;
40122;SDS011;25832;45.490;4.912;2023-03-01T11:11:04;43.80;;;22.73;;
40122;SDS011;25832;45.490;4.912;2023-03-01T11:13:54;39.00;;;21.35;;
40122;SDS011;25832;45.490;4.912;2023-03-01T11:16:26;41.97;;;23.02;;
40122;SDS011;25832;45.490;4.912;2023-03-01T11:18:55;48.20;;;22.98;;
40122;SDS011;25832;45.490;4.912;2023-03-01T11:21:23;43.70;;;22.20;;
40122;SDS011;25832;45.490;4.912;2023-03-01T11:23:51;37.00;;;20.55;;
40122;SDS011;25832;45.490;4.912;2023-03-01T11:26:17;42.40;;;24.02;;
40122;SDS011;25832;45.490;4.912;2023-03-01T11:28:44;43.35;;;21.83;;
40122;SDS011;25832;45.490;4.912;2023-03-01T11:31:15;38.70;;;22.40;;
40122;SDS011;25832;45.490;4.912;2023-03-01T11:36:30;40.25;;;22.85;;
40122;SDS011;25832;45.490;4.912;2023-03-01T11:39:11;37.58;;;21.67;;
40122;SDS011;25832;45.490;4.912;2023-03-01T11:41:48;39.25;;;22.83;;
40122;SDS011;25832;45.490;4.912;2023-03-01T11:44:22;39.47;;;22.58;;
40122;SDS011;25832;45.490;4.912;2023-03-01T11:50:15;37.58;;;22.30;;
40122;SDS011;25832;45.490;4.912;2023-03-01T12:14:52;53.40;;;29.08;;
40122;SDS011;25832;45.490;4.912;2023-03-01T12:17:36;42.47;;;24.60;;
40122;SDS011;25832;45.490;4.912;2023-03-01T12:20:09;40.20;;;23.23;;
40122;SDS011;25832;45.490;4.912;2023-03-01T12:22:59;43.75;;;23.52;;
40122;SDS011;25832;45.490;4.912;2023-03-01T12:26:07;40.20;;;23.70;;
40122;SDS011;25832;45.490;4.912;2023-03-01T12:42:04;39.22;;;22.88;;
40122;SDS011;25832;45.490;4.912;2023-03-01T12:47:20;44.70;;;24.70;;
40122;SDS011;25832;45.490;4.912;2023-03-01T12:49:55;42.05;;;24.00;;
40122;SDS011;25832;45.490;4.912;2023-03-01T12:52:33;42.15;;;24.35;;
40122;SDS011;25832;45.490;4.912;2023-03-01T12:55:19;38.97;;;23.33;;
40122;SDS011;25832;45.490;4.912;2023-03-01T12:57:56;48.30;;;24.42;;
40122;SDS011;25832;45.490;4.912;2023-03-01T13:00:35;48.88;;;25.52;;
40122;SDS011;25832;45.490;4.912;2023-03-01T13:09:04;43.38;;;24.75;;
40122;SDS011;25832;45.490;4.912;2023-03-01T13:11:34;46.05;;;24.23;;
40122;SDS011;25832;45.490;4.912;2023-03-01T13:19:23;44.72;;;22.92;;
40122;SDS011;25832;45.490;4.912;2023-03-01T13:21:51;44.05;;;24.50;;
40122;SDS011;25832;45.490;4.912;2023-03-01T13:24:25;42.05;;;24.13;;
40122;SDS011;25832;45.490;4.912;2023-03-01T13:34:46;42.28;;;24.80;;
40122;SDS011;25832;45.490;4.912;2023-03-01T13:37:23;44.63;;;22.75;;
40122;SDS011;25832;45.490;4.912;2023-03-01T13:39:54;46.58;;;25.83;;
40122;SDS011;25832;45.490;4.912;2023-03-01T13:42:33;48.85;;;26.15;;
40122;SDS011;25832;45.490;4.912;2023-03-01T13:47:56;46.05;;;22.30;;
40122;SDS011;25832;45.490;4.912;2023-03-01T13:50:27;42.20;;;25.60;;
40122;SDS011;25832;45.490;4.912;2023-03-01T13:52:56;49.47;;;24.75;;
40122;SDS011;25832;45.490;4.912;2023-03-01T14:01:02;47.53;;;23.52;;
40122;SDS011;25832;45.490;4.912;2023-03-01T14:03:30;42.50;;;24.35;;
40122;SDS011;25832;45.490;4.912;2023-03-01T14:08:26;46.72;;;26.60;;
40122;SDS011;25832;45.490;4.912;2023-03-01T14:11:07;45.28;;;25.17;;
40122;SDS011;25832;45.490;4.912;2023-03-01T14:19:57;46.70;;;25.27;;
40122;SDS011;25832;45.490;4.912;2023-03-01T14:22:29;43.17;;;25.05;;
40122;SDS011;25832;45.490;4.912;2023-03-01T14:24:59;46.00;;;26.42;;
40122;SDS011;25832;45.490;4.912;2023-03-01T14:27:42;45.33;;;25.95;;
40122;SDS011;25832;45.490;4.912;2023-03-01T14:30:12;43.47;;;25.63;;
40122;SDS011;25832;45.490;4.912;2023-03-01T14:32:48;45.85;;;24.95;;
40122;SDS011;25832;45.490;4.912;2023-03-01T14:35:22;43.17;;;23.77;;
40122;SDS011;25832;45.490;4.912;2023-03-01T14:37:50;46.10;;;25.05;;
40122;SDS011;25832;45.490;4.912;2023-03-01T14:40:23;42.45;;;24.67;;
40122;SDS011;25832;45.490;4.912;2023-03-01T14:42:53;43.05;;;25.05;;
40122;SDS011;25832;45.490;4.912;2023-03-01T14:45:20;45.80;;;25.63;;
40122;SDS011;25832;45.490;4.912;2023-03-01T14:47:46;47.08;;;24.60;;
40122;SDS011;25832;45.490;4.912;2023-03-01T14:52:41;50.33;;;25.00;;
40122;SDS011;25832;45.490;4.912;2023-03-01T14:55:19;42.85;;;24.42;;
40122;SDS011;25832;45.490;4.912;2023-03-01T14:57:50;34.50;;;18.98;;
40122;SDS011;25832;45.490;4.912;2023-03-01T15:00:20;44.28;;;25.27;;
40122;SDS011;25832;45.490;4.912;2023-03-01T15:02:53;41.35;;;24.50;;
40122;SDS011;25832;45.490;4.912;2023-03-01T15:05:30;47.80;;;25.23;;
40122;SDS011;25832;45.490;4.912;2023-03-01T15:07:58;41.40;;;25.73;;
40122;SDS011;25832;45.490;4.912;2023-03-01T15:10:27;42.33;;;24.23;;
40122;SDS011;25832;45.490;4.912;2023-03-01T15:12:54;41.05;;;23.42;;
40122;SDS011;25832;45.490;4.912;2023-03-01T15:15:31;47.45;;;25.08;;
40122;SDS011;25832;45.490;4.912;2023-03-01T15:17:59;45.00;;;24.95;;
40122;SDS011;25832;45.490;4.912;2023-03-01T15:20:28;43.90;;;24.92;;
40122;SDS011;25832;45.490;4.912;2023-03-01T15:22:56;47.05;;;24.70;;
40122;SDS011;25832;45.490;4.912;2023-03-01T15:25:24;42.58;;;24.50;;
40122;SDS011;25832;45.490;4.912;2023-03-01T15:27:52;43.63;;;25.45;;
40122;SDS011;25832;45.490;4.912;2023-03-01T15:30:22;51.92;;;27.83;;
40122;SDS011;25832;45.490;4.912;2023-03-01T15:35:47;46.17;;;25.15;;
40122;SDS011;25832;45.490;4.912;2023-03-01T15:38:23;46.08;;;26.67;;
40122;SDS011;25832;45.490;4.912;2023-03-01T15:40:52;46.08;;;24.25;;
40122;SDS011;25832;45.490;4.912;2023-03-01T15:46:11;44.13;;;24.83;;
40122;SDS011;25832;45.490;4.912;2023-03-01T15:48:46;45.30;;;25.88;;
40122;SDS011;25832;45.490;4.912;2023-03-01T15:51:14;49.92;;;28.05;;
40122;SDS011;25832;45.490;4.912;2023-03-01T15:53:41;50.25;;;25.90;;
40122;SDS011;25832;45.490;4.912;2023-03-01T15:56:11;49.05;;;26.67;;
40122;SDS011;25832;45.490;4.912;2023-03-01T15:58:37;47.90;;;26.65;;
40122;SDS011;25832;45.490;4.912;2023-03-01T16:01:07;41.60;;;23.23;;
40122;SDS011;25832;45.490;4.912;2023-03-01T16:03:37;48.33;;;26.65;;
40122;SDS011;25832;45.490;4.912;2023-03-01T16:06:03;52.90;;;27.67;;
40122;SDS011;25832;45.490;4.912;2023-03-01T16:08:29;53.83;;;29.83;;
40122;SDS011;25832;45.490;4.912;2023-03-01T16:10:54;54.00;;;26.92;;
40122;SDS011;25832;45.490;4.912;2023-03-01T16:13:20;55.75;;;27.92;;
40122;SDS011;25832;45.490;4.912;2023-03-01T16:15:46;48.08;;;27.02;;
40122;SDS011;25832;45.490;4.912;2023-03-01T16:18:11;50.08;;;27.73;;
40122;SDS011;25832;45.490;4.912;2023-03-01T16:20:37;53.30;;;27.58;;
40122;SDS011;25832;45.490;4.912;2023-03-01T16:23:04;50.38;;;27.05;;
40122;SDS011;25832;45.490;4.912;2023-03-01T16:25:33;50.57;;;27.37;;
40122;SDS011;25832;45.490;4.912;2023-03-01T16:28:00;44.92;;;26.45;;
40122;SDS011;25832;45.490;4.912;2023-03-01T16:30:29;40.83;;;21.23;;
40122;SDS011;25832;45.490;4.912;2023-03-01T16:32:55;55.85;;;29.63;;